sensor_id;sensor_type;location;lat;lon;timestamp;temperature;humidity
81218;DHT22;70689;52.494;13.420;2023-09-19T00:01:42;20.30;64.20
81218;DHT22;70689;52.494;13.420;2023-09-19T00:04:10;20.40;63.90
81218;DHT22;70689;52.494;13.420;2023-09-19T00:06:38;20.30;64.20
81218;DHT22;70689;52.494;13.420;2023-09-19T00:09:04;20.30;64.20
81218;DHT22;70689;52.494;13.420;2023-09-19T00:11:30;20.20;64.30
81218;DHT22;70689;52.494;13.420;2023-09-19T00:13:57;20.20;64.40
81218;DHT22;70689;52.494;13.420;2023-09-19T00:16:25;20.20;64.30
81218;DHT22;70689;52.494;13.420;2023-09-19T00:18:51;20.10;64.60
81218;DHT22;70689;52.494;13.420;2023-09-19T00:21:18;20.20;64.50
81218;DHT22;70689;52.494;13.420;2023-09-19T00:23:44;20.10;64.50
81218;DHT22;70689;52.494;13.420;2023-09-19T00:26:10;20.00;64.80
81218;DHT22;70689;52.494;13.420;2023-09-19T00:28:36;20.00;65.10
81218;DHT22;70689;52.494;13.420;2023-09-19T00:31:01;20.00;64.80
81218;DHT22;70689;52.494;13.420;2023-09-19T00:33:27;19.90;65.00
81218;DHT22;70689;52.494;13.420;2023-09-19T00:35:56;19.90;65.00
81218;DHT22;70689;52.494;13.420;2023-09-19T00:38:23;19.90;65.10
81218;DHT22;70689;52.494;13.420;2023-09-19T00:40:53;19.90;65.20
81218;DHT22;70689;52.494;13.420;2023-09-19T00:43:20;19.90;65.20
81218;DHT22;70689;52.494;13.420;2023-09-19T00:45:48;19.80;65.00
81218;DHT22;70689;52.494;13.420;2023-09-19T00:48:15;20.00;64.60
81218;DHT22;70689;52.494;13.420;2023-09-19T00:50:43;20.00;64.40
81218;DHT22;70689;52.494;13.420;2023-09-19T00:53:09;20.10;64.00
81218;DHT22;70689;52.494;13.420;2023-09-19T00:55:39;20.00;64.00
81218;DHT22;70689;52.494;13.420;2023-09-19T00:58:05;19.90;64.20
81218;DHT22;70689;52.494;13.420;2023-09-19T01:00:35;19.90;64.60
81218;DHT22;70689;52.494;13.420;2023-09-19T01:03:01;19.90;64.30
81218;DHT22;70689;52.494;13.420;2023-09-19T01:05:27;19.90;64.50
81218;DHT22;70689;52.494;13.420;2023-09-19T01:07:53;19.90;64.10
81218;DHT22;70689;52.494;13.420;2023-09-19T01:10:19;19.90;64.40
81218;DHT22;70689;52.494;13.420;2023-09-19T01:21:36;19.70;65.00
81218;DHT22;70689;52.494;13.420;2023-09-19T01:32:02;19.50;65.90
81218;DHT22;70689;52.494;13.420;2023-09-19T01:37:20;19.40;66.20
81218;DHT22;70689;52.494;13.420;2023-09-19T01:40:03;19.50;65.80
81218;DHT22;70689;52.494;13.420;2023-09-19T01:42:44;19.60;65.50
81218;DHT22;70689;52.494;13.420;2023-09-19T01:47:52;19.40;65.80
81218;DHT22;70689;52.494;13.420;2023-09-19T01:50:30;19.30;66.30
81218;DHT22;70689;52.494;13.420;2023-09-19T01:53:07;19.40;66.20
81218;DHT22;70689;52.494;13.420;2023-09-19T01:55:40;19.50;65.50
81218;DHT22;70689;52.494;13.420;2023-09-19T02:00:42;19.40;65.80
81218;DHT22;70689;52.494;13.420;2023-09-19T02:03:10;19.40;65.90
81218;DHT22;70689;52.494;13.420;2023-09-19T02:05:37;19.50;65.40
81218;DHT22;70689;52.494;13.420;2023-09-19T02:08:04;19.60;66.10
81218;DHT22;70689;52.494;13.420;2023-09-19T02:10:30;19.40;65.50
81218;DHT22;70689;52.494;13.420;2023-09-19T02:12:56;19.40;65.80
81218;DHT22;70689;52.494;13.420;2023-09-19T02:15:22;19.30;66.20
81218;DHT22;70689;52.494;13.420;2023-09-19T02:17:47;19.20;66.50
81218;DHT22;70689;52.494;13.420;2023-09-19T02:20:13;19.10;66.90
81218;DHT22;70689;52.494;13.420;2023-09-19T02:22:42;19.00;67.30
81218;DHT22;70689;52.494;13.420;2023-09-19T02:25:08;19.00;67.50
81218;DHT22;70689;52.494;13.420;2023-09-19T02:27:34;19.00;67.40
81218;DHT22;70689;52.494;13.420;2023-09-19T02:30:00;19.00;67.30
81218;DHT22;70689;52.494;13.420;2023-09-19T02:32:30;19.00;67.70
81218;DHT22;70689;52.494;13.420;2023-09-19T02:34:57;18.90;67.90
81218;DHT22;70689;52.494;13.420;2023-09-19T02:37:23;18.90;67.80
81218;DHT22;70689;52.494;13.420;2023-09-19T02:39:49;19.00;67.70
81218;DHT22;70689;52.494;13.420;2023-09-19T02:42:15;19.00;67.70
81218;DHT22;70689;52.494;13.420;2023-09-19T02:44:40;19.00;67.60
81218;DHT22;70689;52.494;13.420;2023-09-19T02:47:06;19.10;67.10
81218;DHT22;70689;52.494;13.420;2023-09-19T02:49:32;19.20;67.00
81218;DHT22;70689;52.494;13.420;2023-09-19T02:51:58;19.10;67.00
81218;DHT22;70689;52.494;13.420;2023-09-19T02:54:26;19.10;66.90
81218;DHT22;70689;52.494;13.420;2023-09-19T02:56:52;19.20;66.90
81218;DHT22;70689;52.494;13.420;2023-09-19T02:59:19;19.00;67.20
81218;DHT22;70689;52.494;13.420;2023-09-19T03:01:45;19.10;67.20
81218;DHT22;70689;52.494;13.420;2023-09-19T03:04:13;19.20;66.70
81218;DHT22;70689;52.494;13.420;2023-09-19T03:06:45;19.20;66.30
81218;DHT22;70689;52.494;13.420;2023-09-19T03:09:11;19.20;66.60
81218;DHT22;70689;52.494;13.420;2023-09-19T03:11:36;19.10;66.70
81218;DHT22;70689;52.494;13.420;2023-09-19T03:14:03;19.20;66.70
81218;DHT22;70689;52.494;13.420;2023-09-19T03:16:29;19.10;66.80
81218;DHT22;70689;52.494;13.420;2023-09-19T03:18:55;19.20;66.50
81218;DHT22;70689;52.494;13.420;2023-09-19T03:21:21;19.30;65.90
81218;DHT22;70689;52.494;13.420;2023-09-19T03:23:56;19.20;65.70
81218;DHT22;70689;52.494;13.420;2023-09-19T03:26:22;19.20;65.70
81218;DHT22;70689;52.494;13.420;2023-09-19T03:28:47;19.20;65.30
81218;DHT22;70689;52.494;13.420;2023-09-19T03:31:13;19.20;65.00
81218;DHT22;70689;52.494;13.420;2023-09-19T03:33:39;19.30;64.60
81218;DHT22;70689;52.494;13.420;2023-09-19T03:36:04;19.40;64.20
81218;DHT22;70689;52.494;13.420;2023-09-19T03:38:30;19.40;64.20
81218;DHT22;70689;52.494;13.420;2023-09-19T03:40:57;19.50;63.70
81218;DHT22;70689;52.494;13.420;2023-09-19T03:43:22;19.50;63.40
81218;DHT22;70689;52.494;13.420;2023-09-19T03:45:48;19.50;63.30
81218;DHT22;70689;52.494;13.420;2023-09-19T03:48:14;19.50;62.50
81218;DHT22;70689;52.494;13.420;2023-09-19T03:50:40;19.50;62.60
81218;DHT22;70689;52.494;13.420;2023-09-19T03:53:05;19.50;62.50
81218;DHT22;70689;52.494;13.420;2023-09-19T03:55:33;19.60;62.00
81218;DHT22;70689;52.494;13.420;2023-09-19T03:58:04;19.50;62.20
81218;DHT22;70689;52.494;13.420;2023-09-19T04:00:30;19.50;61.90
81218;DHT22;70689;52.494;13.420;2023-09-19T04:02:55;19.50;61.90
81218;DHT22;70689;52.494;13.420;2023-09-19T04:05:22;19.40;61.80
81218;DHT22;70689;52.494;13.420;2023-09-19T04:07:48;19.50;61.90
81218;DHT22;70689;52.494;13.420;2023-09-19T04:10:13;19.50;61.00
81218;DHT22;70689;52.494;13.420;2023-09-19T04:12:40;19.40;60.60
81218;DHT22;70689;52.494;13.420;2023-09-19T04:15:06;19.30;60.50
81218;DHT22;70689;52.494;13.420;2023-09-19T04:17:33;19.40;60.10
81218;DHT22;70689;52.494;13.420;2023-09-19T04:19:59;19.50;58.80
81218;DHT22;70689;52.494;13.420;2023-09-19T04:22:25;19.50;58.90
81218;DHT22;70689;52.494;13.420;2023-09-19T04:24:51;19.50;58.00
81218;DHT22;70689;52.494;13.420;2023-09-19T04:27:16;19.60;57.40
81218;DHT22;70689;52.494;13.420;2023-09-19T04:29:42;19.50;57.40
81218;DHT22;70689;52.494;13.420;2023-09-19T04:32:08;19.40;57.40
81218;DHT22;70689;52.494;13.420;2023-09-19T04:34:35;19.40;57.20
81218;DHT22;70689;52.494;13.420;2023-09-19T04:37:01;19.40;57.40
81218;DHT22;70689;52.494;13.420;2023-09-19T04:39:27;19.30;57.60
81218;DHT22;70689;52.494;13.420;2023-09-19T04:41:54;19.30;57.90
81218;DHT22;70689;52.494;13.420;2023-09-19T04:44:20;19.30;58.00
81218;DHT22;70689;52.494;13.420;2023-09-19T04:46:49;19.30;58.00
81218;DHT22;70689;52.494;13.420;2023-09-19T04:49:14;19.40;57.50
81218;DHT22;70689;52.494;13.420;2023-09-19T04:51:40;19.40;57.20
81218;DHT22;70689;52.494;13.420;2023-09-19T04:54:06;19.40;57.40
81218;DHT22;70689;52.494;13.420;2023-09-19T04:56:35;19.30;57.30
81218;DHT22;70689;52.494;13.420;2023-09-19T04:59:00;19.40;57.10
81218;DHT22;70689;52.494;13.420;2023-09-19T05:01:26;19.40;57.00
81218;DHT22;70689;52.494;13.420;2023-09-19T05:03:52;19.30;57.00
81218;DHT22;70689;52.494;13.420;2023-09-19T05:06:19;19.30;56.90
81218;DHT22;70689;52.494;13.420;2023-09-19T05:08:46;19.30;57.00
81218;DHT22;70689;52.494;13.420;2023-09-19T05:11:19;19.20;57.50
81218;DHT22;70689;52.494;13.420;2023-09-19T05:13:47;19.20;57.10
81218;DHT22;70689;52.494;13.420;2023-09-19T05:16:12;19.20;57.20
81218;DHT22;70689;52.494;13.420;2023-09-19T05:18:47;19.30;57.80
81218;DHT22;70689;52.494;13.420;2023-09-19T05:21:12;19.20;56.90
81218;DHT22;70689;52.494;13.420;2023-09-19T05:23:38;19.20;56.70
81218;DHT22;70689;52.494;13.420;2023-09-19T05:26:04;19.20;57.70
81218;DHT22;70689;52.494;13.420;2023-09-19T05:28:31;19.20;56.50
81218;DHT22;70689;52.494;13.420;2023-09-19T05:31:02;19.20;56.60
81218;DHT22;70689;52.494;13.420;2023-09-19T05:33:28;19.20;56.60
81218;DHT22;70689;52.494;13.420;2023-09-19T05:35:56;19.10;56.80
81218;DHT22;70689;52.494;13.420;2023-09-19T05:38:21;19.10;56.60
81218;DHT22;70689;52.494;13.420;2023-09-19T05:40:48;19.20;56.60
81218;DHT22;70689;52.494;13.420;2023-09-19T05:43:13;19.20;56.10
81218;DHT22;70689;52.494;13.420;2023-09-19T05:45:42;19.20;56.10
81218;DHT22;70689;52.494;13.420;2023-09-19T05:48:14;19.10;56.60
81218;DHT22;70689;52.494;13.420;2023-09-19T05:50:41;19.10;56.60
81218;DHT22;70689;52.494;13.420;2023-09-19T05:53:08;19.00;56.90
81218;DHT22;70689;52.494;13.420;2023-09-19T05:55:37;19.00;57.00
81218;DHT22;70689;52.494;13.420;2023-09-19T05:58:03;18.90;57.10
81218;DHT22;70689;52.494;13.420;2023-09-19T06:00:29;18.90;57.40
81218;DHT22;70689;52.494;13.420;2023-09-19T06:02:58;18.80;57.30
81218;DHT22;70689;52.494;13.420;2023-09-19T06:05:25;18.90;57.40
81218;DHT22;70689;52.494;13.420;2023-09-19T06:07:57;18.90;57.20
81218;DHT22;70689;52.494;13.420;2023-09-19T06:10:25;19.00;56.90
81218;DHT22;70689;52.494;13.420;2023-09-19T06:12:51;19.00;56.90
81218;DHT22;70689;52.494;13.420;2023-09-19T06:15:23;18.90;56.70
81218;DHT22;70689;52.494;13.420;2023-09-19T06:18:01;18.80;56.90
81218;DHT22;70689;52.494;13.420;2023-09-19T06:20:28;18.80;57.20
81218;DHT22;70689;52.494;13.420;2023-09-19T06:22:54;18.90;57.00
81218;DHT22;70689;52.494;13.420;2023-09-19T06:25:20;19.00;56.70
81218;DHT22;70689;52.494;13.420;2023-09-19T06:30:12;18.80;57.00
81218;DHT22;70689;52.494;13.420;2023-09-19T06:32:39;18.80;56.80
81218;DHT22;70689;52.494;13.420;2023-09-19T06:35:06;18.90;56.80
81218;DHT22;70689;52.494;13.420;2023-09-19T06:37:36;19.00;56.60
81218;DHT22;70689;52.494;13.420;2023-09-19T06:40:06;19.00;56.20
81218;DHT22;70689;52.494;13.420;2023-09-19T06:42:32;19.00;56.20
81218;DHT22;70689;52.494;13.420;2023-09-19T06:44:58;19.00;55.80
81218;DHT22;70689;52.494;13.420;2023-09-19T06:47:23;19.10;56.20
81218;DHT22;70689;52.494;13.420;2023-09-19T06:49:51;19.20;56.00
81218;DHT22;70689;52.494;13.420;2023-09-19T06:52:17;19.20;55.60
81218;DHT22;70689;52.494;13.420;2023-09-19T06:54:47;19.30;55.70
81218;DHT22;70689;52.494;13.420;2023-09-19T06:57:16;19.80;54.60
81218;DHT22;70689;52.494;13.420;2023-09-19T06:59:41;20.90;50.40
81218;DHT22;70689;52.494;13.420;2023-09-19T07:02:07;21.90;47.50
81218;DHT22;70689;52.494;13.420;2023-09-19T07:04:33;22.70;44.80
81218;DHT22;70689;52.494;13.420;2023-09-19T07:06:59;23.60;42.70
81218;DHT22;70689;52.494;13.420;2023-09-19T07:09:25;24.70;39.10
81218;DHT22;70689;52.494;13.420;2023-09-19T07:11:53;25.10;37.00
81218;DHT22;70689;52.494;13.420;2023-09-19T07:14:18;24.50;38.10
81218;DHT22;70689;52.494;13.420;2023-09-19T07:16:44;24.10;39.30
81218;DHT22;70689;52.494;13.420;2023-09-19T07:19:10;23.80;40.00
81218;DHT22;70689;52.494;13.420;2023-09-19T07:21:36;23.40;40.10
81218;DHT22;70689;52.494;13.420;2023-09-19T07:24:04;22.50;43.20
81218;DHT22;70689;52.494;13.420;2023-09-19T07:26:30;22.50;43.50
81218;DHT22;70689;52.494;13.420;2023-09-19T07:28:56;22.20;43.70
81218;DHT22;70689;52.494;13.420;2023-09-19T07:31:23;21.70;45.20
81218;DHT22;70689;52.494;13.420;2023-09-19T07:33:49;21.90;44.50
81218;DHT22;70689;52.494;13.420;2023-09-19T07:36:14;21.70;44.30
81218;DHT22;70689;52.494;13.420;2023-09-19T07:38:41;21.40;45.40
81218;DHT22;70689;52.494;13.420;2023-09-19T07:41:08;21.40;46.10
81218;DHT22;70689;52.494;13.420;2023-09-19T07:43:35;21.70;45.80
81218;DHT22;70689;52.494;13.420;2023-09-19T07:46:05;21.80;44.60
81218;DHT22;70689;52.494;13.420;2023-09-19T07:48:35;21.80;45.00
81218;DHT22;70689;52.494;13.420;2023-09-19T07:51:05;21.50;45.40
81218;DHT22;70689;52.494;13.420;2023-09-19T07:53:32;21.20;45.80
81218;DHT22;70689;52.494;13.420;2023-09-19T07:56:07;21.20;45.50
81218;DHT22;70689;52.494;13.420;2023-09-19T07:58:34;21.20;45.00
81218;DHT22;70689;52.494;13.420;2023-09-19T08:01:07;21.20;44.30
81218;DHT22;70689;52.494;13.420;2023-09-19T08:03:33;21.20;45.30
81218;DHT22;70689;52.494;13.420;2023-09-19T08:06:02;21.10;44.60
81218;DHT22;70689;52.494;13.420;2023-09-19T08:08:28;21.20;44.40
81218;DHT22;70689;52.494;13.420;2023-09-19T08:10:57;21.50;43.90
81218;DHT22;70689;52.494;13.420;2023-09-19T08:13:24;21.70;42.80
81218;DHT22;70689;52.494;13.420;2023-09-19T08:15:49;21.60;43.00
81218;DHT22;70689;52.494;13.420;2023-09-19T08:18:16;21.90;42.20
81218;DHT22;70689;52.494;13.420;2023-09-19T08:20:42;22.50;40.00
81218;DHT22;70689;52.494;13.420;2023-09-19T08:23:08;22.20;39.90
81218;DHT22;70689;52.494;13.420;2023-09-19T08:25:34;21.90;41.10
81218;DHT22;70689;52.494;13.420;2023-09-19T08:28:00;21.70;41.70
81218;DHT22;70689;52.494;13.420;2023-09-19T08:30:29;21.50;41.70
81218;DHT22;70689;52.494;13.420;2023-09-19T08:33:02;21.30;42.30
81218;DHT22;70689;52.494;13.420;2023-09-19T08:35:32;21.40;42.70
81218;DHT22;70689;52.494;13.420;2023-09-19T08:37:57;21.30;42.80
81218;DHT22;70689;52.494;13.420;2023-09-19T08:40:26;21.30;42.30
81218;DHT22;70689;52.494;13.420;2023-09-19T08:42:55;21.20;42.70
81218;DHT22;70689;52.494;13.420;2023-09-19T08:45:23;21.40;42.10
81218;DHT22;70689;52.494;13.420;2023-09-19T08:48:23;21.50;41.70
81218;DHT22;70689;52.494;13.420;2023-09-19T08:54:17;22.20;39.90
81218;DHT22;70689;52.494;13.420;2023-09-19T08:56:49;22.50;39.60
81218;DHT22;70689;52.494;13.420;2023-09-19T08:59:15;22.60;39.30
81218;DHT22;70689;52.494;13.420;2023-09-19T09:01:42;22.60;38.90
81218;DHT22;70689;52.494;13.420;2023-09-19T09:04:09;22.60;39.00
81218;DHT22;70689;52.494;13.420;2023-09-19T09:06:38;22.60;39.60
81218;DHT22;70689;52.494;13.420;2023-09-19T09:09:05;22.60;39.20
81218;DHT22;70689;52.494;13.420;2023-09-19T09:11:33;22.50;38.60
81218;DHT22;70689;52.494;13.420;2023-09-19T09:13:58;22.10;39.00
81218;DHT22;70689;52.494;13.420;2023-09-19T09:16:24;22.10;39.10
81218;DHT22;70689;52.494;13.420;2023-09-19T09:18:51;22.30;39.40
81218;DHT22;70689;52.494;13.420;2023-09-19T09:21:20;22.50;39.30
81218;DHT22;70689;52.494;13.420;2023-09-19T09:23:47;22.50;38.10
81218;DHT22;70689;52.494;13.420;2023-09-19T09:26:13;23.60;35.60
81218;DHT22;70689;52.494;13.420;2023-09-19T09:28:45;25.40;31.00
81218;DHT22;70689;52.494;13.420;2023-09-19T09:31:24;26.20;29.60
81218;DHT22;70689;52.494;13.420;2023-09-19T09:33:54;25.30;29.90
81218;DHT22;70689;52.494;13.420;2023-09-19T09:36:39;24.40;32.00
81218;DHT22;70689;52.494;13.420;2023-09-19T09:39:07;24.20;33.00
81218;DHT22;70689;52.494;13.420;2023-09-19T09:41:50;23.50;34.00
81218;DHT22;70689;52.494;13.420;2023-09-19T09:44:17;23.40;34.20
81218;DHT22;70689;52.494;13.420;2023-09-19T09:46:45;24.50;32.00
81218;DHT22;70689;52.494;13.420;2023-09-19T09:49:24;25.40;29.50
81218;DHT22;70689;52.494;13.420;2023-09-19T09:52:01;24.80;30.10
81218;DHT22;70689;52.494;13.420;2023-09-19T09:54:31;23.90;31.40
81218;DHT22;70689;52.494;13.420;2023-09-19T09:57:03;23.30;33.10
81218;DHT22;70689;52.494;13.420;2023-09-19T10:02:18;23.70;32.90
81218;DHT22;70689;52.494;13.420;2023-09-19T10:04:54;24.10;32.20
81218;DHT22;70689;52.494;13.420;2023-09-19T10:07:29;24.20;30.20
81218;DHT22;70689;52.494;13.420;2023-09-19T10:10:00;24.40;29.10
81218;DHT22;70689;52.494;13.420;2023-09-19T10:12:31;24.50;28.70
81218;DHT22;70689;52.494;13.420;2023-09-19T10:15:00;24.20;29.30
81218;DHT22;70689;52.494;13.420;2023-09-19T10:17:29;23.80;30.20
81218;DHT22;70689;52.494;13.420;2023-09-19T10:19:57;23.50;30.90
81218;DHT22;70689;52.494;13.420;2023-09-19T10:22:26;23.20;31.80
81218;DHT22;70689;52.494;13.420;2023-09-19T10:24:57;23.40;32.70
81218;DHT22;70689;52.494;13.420;2023-09-19T10:27:26;24.00;30.90
81218;DHT22;70689;52.494;13.420;2023-09-19T10:29:54;25.10;28.90
81218;DHT22;70689;52.494;13.420;2023-09-19T10:32:22;25.10;28.10
81218;DHT22;70689;52.494;13.420;2023-09-19T10:34:49;25.20;28.30
81218;DHT22;70689;52.494;13.420;2023-09-19T10:37:18;24.90;28.30
81218;DHT22;70689;52.494;13.420;2023-09-19T10:39:48;24.60;28.60
81218;DHT22;70689;52.494;13.420;2023-09-19T10:42:18;24.50;28.50
81218;DHT22;70689;52.494;13.420;2023-09-19T10:44:50;24.70;28.20
81218;DHT22;70689;52.494;13.420;2023-09-19T10:47:20;24.50;28.00
81218;DHT22;70689;52.494;13.420;2023-09-19T10:49:47;24.00;29.20
81218;DHT22;70689;52.494;13.420;2023-09-19T10:52:18;23.70;30.00
81218;DHT22;70689;52.494;13.420;2023-09-19T10:54:50;23.70;30.30
81218;DHT22;70689;52.494;13.420;2023-09-19T10:57:23;23.40;29.10
81218;DHT22;70689;52.494;13.420;2023-09-19T11:00:06;23.80;28.60
81218;DHT22;70689;52.494;13.420;2023-09-19T11:05:40;24.50;26.40
81218;DHT22;70689;52.494;13.420;2023-09-19T11:08:10;24.50;27.20
81218;DHT22;70689;52.494;13.420;2023-09-19T11:10:50;24.20;27.30
81218;DHT22;70689;52.494;13.420;2023-09-19T11:13:26;24.00;27.30
81218;DHT22;70689;52.494;13.420;2023-09-19T11:26:50;24.50;27.70
81218;DHT22;70689;52.494;13.420;2023-09-19T11:29:28;24.40;27.10
81218;DHT22;70689;52.494;13.420;2023-09-19T11:31:55;24.30;26.30
81218;DHT22;70689;52.494;13.420;2023-09-19T11:37:03;24.50;26.50
81218;DHT22;70689;52.494;13.420;2023-09-19T11:39:31;24.60;26.20
81218;DHT22;70689;52.494;13.420;2023-09-19T11:41:58;24.60;25.70
81218;DHT22;70689;52.494;13.420;2023-09-19T11:46:56;24.10;27.20
81218;DHT22;70689;52.494;13.420;2023-09-19T11:49:27;24.20;27.10
81218;DHT22;70689;52.494;13.420;2023-09-19T11:51:57;24.50;27.40
81218;DHT22;70689;52.494;13.420;2023-09-19T11:54:27;24.80;26.80
81218;DHT22;70689;52.494;13.420;2023-09-19T11:56:57;24.70;26.90
81218;DHT22;70689;52.494;13.420;2023-09-19T11:59:27;24.90;26.50
81218;DHT22;70689;52.494;13.420;2023-09-19T12:01:56;24.70;25.80
81218;DHT22;70689;52.494;13.420;2023-09-19T12:04:36;23.80;26.80
81218;DHT22;70689;52.494;13.420;2023-09-19T12:07:07;23.00;28.10
81218;DHT22;70689;52.494;13.420;2023-09-19T12:09:39;23.20;28.00
81218;DHT22;70689;52.494;13.420;2023-09-19T12:12:08;23.20;28.00
81218;DHT22;70689;52.494;13.420;2023-09-19T12:14:34;23.20;28.30
81218;DHT22;70689;52.494;13.420;2023-09-19T12:17:00;23.20;28.30
81218;DHT22;70689;52.494;13.420;2023-09-19T12:19:28;23.00;28.40
81218;DHT22;70689;52.494;13.420;2023-09-19T12:21:59;23.00;28.20
81218;DHT22;70689;52.494;13.420;2023-09-19T12:24:28;22.70;28.80
81218;DHT22;70689;52.494;13.420;2023-09-19T12:27:03;22.70;28.70
81218;DHT22;70689;52.494;13.420;2023-09-19T12:29:52;22.90;28.40
81218;DHT22;70689;52.494;13.420;2023-09-19T12:32:37;22.80;28.10
81218;DHT22;70689;52.494;13.420;2023-09-19T12:35:06;22.90;28.10
81218;DHT22;70689;52.494;13.420;2023-09-19T12:37:44;22.80;28.00
81218;DHT22;70689;52.494;13.420;2023-09-19T12:40:21;22.90;30.00
81218;DHT22;70689;52.494;13.420;2023-09-19T12:42:56;21.80;33.80
81218;DHT22;70689;52.494;13.420;2023-09-19T12:45:24;20.70;37.60
81218;DHT22;70689;52.494;13.420;2023-09-19T12:48:21;20.00;43.80
81218;DHT22;70689;52.494;13.420;2023-09-19T12:51:04;19.40;41.80
81218;DHT22;70689;52.494;13.420;2023-09-19T12:53:40;19.30;41.30
81218;DHT22;70689;52.494;13.420;2023-09-19T12:56:12;19.50;39.50
81218;DHT22;70689;52.494;13.420;2023-09-19T13:01:20;20.10;37.00
81218;DHT22;70689;52.494;13.420;2023-09-19T13:04:14;20.20;38.90
81218;DHT22;70689;52.494;13.420;2023-09-19T13:06:53;20.30;37.20
81218;DHT22;70689;52.494;13.420;2023-09-19T13:09:22;20.50;37.30
81218;DHT22;70689;52.494;13.420;2023-09-19T13:11:50;20.70;35.30
81218;DHT22;70689;52.494;13.420;2023-09-19T13:14:26;20.80;34.90
81218;DHT22;70689;52.494;13.420;2023-09-19T13:17:06;20.80;35.40
81218;DHT22;70689;52.494;13.420;2023-09-19T13:19:44;20.90;34.50
81218;DHT22;70689;52.494;13.420;2023-09-19T13:22:45;21.10;33.10
81218;DHT22;70689;52.494;13.420;2023-09-19T13:25:16;21.10;33.30
81218;DHT22;70689;52.494;13.420;2023-09-19T13:27:49;21.20;32.80
81218;DHT22;70689;52.494;13.420;2023-09-19T13:30:17;21.30;32.30
81218;DHT22;70689;52.494;13.420;2023-09-19T13:32:44;21.40;31.90
81218;DHT22;70689;52.494;13.420;2023-09-19T13:35:10;21.50;32.30
81218;DHT22;70689;52.494;13.420;2023-09-19T13:37:37;21.50;33.90
81218;DHT22;70689;52.494;13.420;2023-09-19T13:40:08;21.30;32.80
81218;DHT22;70689;52.494;13.420;2023-09-19T13:42:34;21.30;33.80
81218;DHT22;70689;52.494;13.420;2023-09-19T13:45:02;21.40;32.30
81218;DHT22;70689;52.494;13.420;2023-09-19T13:47:30;21.60;31.70
81218;DHT22;70689;52.494;13.420;2023-09-19T13:49:55;21.80;31.10
81218;DHT22;70689;52.494;13.420;2023-09-19T13:52:21;21.80;30.90
81218;DHT22;70689;52.494;13.420;2023-09-19T13:54:51;21.80;31.20
81218;DHT22;70689;52.494;13.420;2023-09-19T13:57:18;21.80;30.50
81218;DHT22;70689;52.494;13.420;2023-09-19T13:59:44;21.70;31.40
81218;DHT22;70689;52.494;13.420;2023-09-19T14:02:09;21.60;30.90
81218;DHT22;70689;52.494;13.420;2023-09-19T14:04:35;21.80;31.50
81218;DHT22;70689;52.494;13.420;2023-09-19T14:07:02;21.80;31.10
81218;DHT22;70689;52.494;13.420;2023-09-19T14:09:27;21.80;31.00
81218;DHT22;70689;52.494;13.420;2023-09-19T14:11:53;21.70;31.00
81218;DHT22;70689;52.494;13.420;2023-09-19T14:14:19;21.90;31.20
81218;DHT22;70689;52.494;13.420;2023-09-19T14:16:46;22.00;30.70
81218;DHT22;70689;52.494;13.420;2023-09-19T14:19:12;22.10;31.60
81218;DHT22;70689;52.494;13.420;2023-09-19T14:21:39;22.20;30.20
81218;DHT22;70689;52.494;13.420;2023-09-19T14:24:05;22.40;30.00
81218;DHT22;70689;52.494;13.420;2023-09-19T14:26:38;22.50;29.80
81218;DHT22;70689;52.494;13.420;2023-09-19T14:29:04;22.40;29.90
81218;DHT22;70689;52.494;13.420;2023-09-19T14:31:33;22.40;30.00
81218;DHT22;70689;52.494;13.420;2023-09-19T14:34:00;22.40;29.90
81218;DHT22;70689;52.494;13.420;2023-09-19T14:36:25;22.40;30.00
81218;DHT22;70689;52.494;13.420;2023-09-19T14:38:55;22.30;30.30
81218;DHT22;70689;52.494;13.420;2023-09-19T14:41:21;22.30;30.20
81218;DHT22;70689;52.494;13.420;2023-09-19T14:43:48;22.30;30.40
81218;DHT22;70689;52.494;13.420;2023-09-19T14:46:14;22.40;30.40
81218;DHT22;70689;52.494;13.420;2023-09-19T14:48:40;22.30;30.40
81218;DHT22;70689;52.494;13.420;2023-09-19T14:51:08;22.40;30.20
81218;DHT22;70689;52.494;13.420;2023-09-19T14:53:35;22.20;30.00
81218;DHT22;70689;52.494;13.420;2023-09-19T14:56:01;22.20;30.20
81218;DHT22;70689;52.494;13.420;2023-09-19T14:58:31;22.00;30.00
81218;DHT22;70689;52.494;13.420;2023-09-19T15:01:08;21.80;30.30
81218;DHT22;70689;52.494;13.420;2023-09-19T15:03:36;21.80;30.50
81218;DHT22;70689;52.494;13.420;2023-09-19T15:06:03;21.80;30.40
81218;DHT22;70689;52.494;13.420;2023-09-19T15:08:33;21.80;30.10
81218;DHT22;70689;52.494;13.420;2023-09-19T15:11:01;22.00;30.20
81218;DHT22;70689;52.494;13.420;2023-09-19T15:13:31;21.90;30.00
81218;DHT22;70689;52.494;13.420;2023-09-19T15:16:04;22.10;30.30
81218;DHT22;70689;52.494;13.420;2023-09-19T15:18:30;22.20;29.90
81218;DHT22;70689;52.494;13.420;2023-09-19T15:21:00;22.30;29.50
81218;DHT22;70689;52.494;13.420;2023-09-19T15:23:26;22.10;29.90
81218;DHT22;70689;52.494;13.420;2023-09-19T15:25:51;22.00;29.90
81218;DHT22;70689;52.494;13.420;2023-09-19T15:28:19;21.80;30.20
81218;DHT22;70689;52.494;13.420;2023-09-19T15:30:50;21.80;30.20
81218;DHT22;70689;52.494;13.420;2023-09-19T15:33:22;21.70;30.60
81218;DHT22;70689;52.494;13.420;2023-09-19T15:35:48;21.80;30.90
81218;DHT22;70689;52.494;13.420;2023-09-19T15:38:14;21.90;30.10
81218;DHT22;70689;52.494;13.420;2023-09-19T15:40:46;22.00;30.20
81218;DHT22;70689;52.494;13.420;2023-09-19T15:43:12;22.00;30.00
81218;DHT22;70689;52.494;13.420;2023-09-19T15:45:38;21.90;30.60
81218;DHT22;70689;52.494;13.420;2023-09-19T15:48:04;22.00;30.90
81218;DHT22;70689;52.494;13.420;2023-09-19T15:50:30;22.10;30.70
81218;DHT22;70689;52.494;13.420;2023-09-19T15:52:55;22.20;30.60
81218;DHT22;70689;52.494;13.420;2023-09-19T15:55:21;22.20;30.60
81218;DHT22;70689;52.494;13.420;2023-09-19T15:57:47;22.00;30.80
81218;DHT22;70689;52.494;13.420;2023-09-19T16:00:13;21.90;31.00
81218;DHT22;70689;52.494;13.420;2023-09-19T16:02:42;21.80;31.70
81218;DHT22;70689;52.494;13.420;2023-09-19T16:05:10;22.00;31.50
81218;DHT22;70689;52.494;13.420;2023-09-19T16:07:36;22.00;31.40
81218;DHT22;70689;52.494;13.420;2023-09-19T16:10:02;21.90;31.80
81218;DHT22;70689;52.494;13.420;2023-09-19T16:12:28;22.00;31.70
81218;DHT22;70689;52.494;13.420;2023-09-19T16:14:55;22.10;31.50
81218;DHT22;70689;52.494;13.420;2023-09-19T16:17:21;22.20;31.00
81218;DHT22;70689;52.494;13.420;2023-09-19T16:19:47;22.10;31.00